createdAt,value
2018-08-24T00:00:04.035Z,18.89
2018-08-24T00:05:04.047Z,18.92
2018-08-24T00:10:04.037Z,19.08
2018-08-24T00:15:04.104Z,19.21
2018-08-24T00:20:04.053Z,19.28
2018-08-24T00:25:04.054Z,19.31
2018-08-24T00:30:04.053Z,19.16
2018-08-24T00:35:04.060Z,19.16
2018-08-24T00:40:04.059Z,19.04
2018-08-24T00:45:04.063Z,18.98
2018-08-24T00:50:04.068Z,18.89
2018-08-24T00:55:04.070Z,18.82
2018-08-24T01:00:04.065Z,18.7
2018-08-24T01:05:04.096Z,18.57
2018-08-24T01:10:04.073Z,18.54
2018-08-24T01:15:04.073Z,18.76
2018-08-24T01:20:04.085Z,18.97
2018-08-24T01:25:04.086Z,19.06
2018-08-24T01:30:04.092Z,19.09
2018-08-24T01:35:04.093Z,19.07
2018-08-24T01:40:04.090Z,19.04
2018-08-24T01:45:04.095Z,18.98
2018-08-24T01:50:04.113Z,18.94
2018-08-24T01:55:04.094Z,18.84
2018-08-24T02:00:04.101Z,18.71
2018-08-24T02:05:04.117Z,18.57
2018-08-24T02:10:04.108Z,18.42
2018-08-24T02:15:04.105Z,18.24
2018-08-24T02:20:04.124Z,18.11
2018-08-24T02:25:04.111Z,18.17
2018-08-24T02:30:04.116Z,18.37
2018-08-24T02:35:04.137Z,18.57
2018-08-24T02:40:04.122Z,18.74
2018-08-24T02:45:04.245Z,18.85
2018-08-24T02:50:04.129Z,18.83
2018-08-24T02:55:04.123Z,18.66
2018-08-24T03:00:04.132Z,18.5
2018-08-24T03:05:04.228Z,18.32
2018-08-24T03:10:04.136Z,18.18
2018-08-24T03:15:04.135Z,18.23
2018-08-24T03:20:04.150Z,18.35
2018-08-24T03:25:04.145Z,18.42
2018-08-24T03:30:04.146Z,18.47
2018-08-24T03:35:04.153Z,18.32
2018-08-24T03:40:04.151Z,18.12
2018-08-24T03:45:04.158Z,18.08
2018-08-24T03:50:04.157Z,18.1
2018-08-24T03:55:04.162Z,18.21
2018-08-24T04:00:04.191Z,18.29
2018-08-24T04:05:04.175Z,18.28
2018-08-24T04:10:04.173Z,18.27
2018-08-24T04:15:04.192Z,18.25
2018-08-24T04:20:04.175Z,18.26
2018-08-24T04:25:04.180Z,18.29
2018-08-24T04:30:04.181Z,18.28
2018-08-24T04:35:04.328Z,17.99
2018-08-24T04:40:04.195Z,17.32
2018-08-24T04:45:04.205Z,17.09
2018-08-24T04:50:04.176Z,17.2
2018-08-24T04:55:04.204Z,17.34
2018-08-24T05:00:04.200Z,17.47
2018-08-24T05:05:04.205Z,17.52
2018-08-24T05:10:04.220Z,17.54
2018-08-24T05:15:04.204Z,17.62
2018-08-24T05:20:04.202Z,17.65
2018-08-24T05:25:04.224Z,17.65
2018-08-24T05:30:04.204Z,17.68
2018-08-24T05:35:04.212Z,17.8
2018-08-24T05:40:04.218Z,17.96
2018-08-24T05:45:04.216Z,17.98
2018-08-24T05:50:04.219Z,17.81
2018-08-24T05:55:04.231Z,17.75
2018-08-24T06:00:04.226Z,17.66
2018-08-24T06:05:04.232Z,17.59
2018-08-24T06:10:04.246Z,17.67
2018-08-24T06:15:04.233Z,17.97
2018-08-24T06:20:04.237Z,18.26
2018-08-24T06:25:04.259Z,18.32
2018-08-24T06:30:04.238Z,18.42
2018-08-24T06:35:04.252Z,18.68
2018-08-24T06:40:04.255Z,19.01
2018-08-24T06:45:04.250Z,19.4
2018-08-24T06:50:04.256Z,19.31
2018-08-24T06:55:04.272Z,19.07
2018-08-24T07:00:04.257Z,18.84
2018-08-24T07:05:04.264Z,18.62
2018-08-24T07:10:04.269Z,18.48
2018-08-24T07:15:04.262Z,18.52
2018-08-24T07:20:04.269Z,18.58
2018-08-24T07:25:04.302Z,18.65
2018-08-24T07:30:04.278Z,18.68
2018-08-24T07:35:04.348Z,18.63
2018-08-24T07:40:04.314Z,18.66
2018-08-24T07:45:04.281Z,18.93
2018-08-24T07:50:04.288Z,19.54
2018-08-24T07:55:04.293Z,20.16
2018-08-24T08:00:04.293Z,20.73
2018-08-24T08:05:04.293Z,20.63
2018-08-24T08:10:04.314Z,21.15
2018-08-24T08:15:04.302Z,21.74
2018-08-24T08:20:04.302Z,22.11
2018-08-24T08:25:04.318Z,21.99
2018-08-24T08:30:04.311Z,22.1
2018-08-24T08:35:04.309Z,21.88
2018-08-24T08:40:04.320Z,21.35
2018-08-24T08:45:04.313Z,20.86
2018-08-24T08:50:04.325Z,20.7
2018-08-24T08:55:04.338Z,20.9
2018-08-24T09:00:04.324Z,20.74
2018-08-24T09:05:04.328Z,20.46
2018-08-24T09:10:04.331Z,20.53
2018-08-24T09:15:04.333Z,20.63
2018-08-24T09:20:04.373Z,20.77
2018-08-24T09:25:04.341Z,21.39
2018-08-24T09:30:04.346Z,21.96
2018-08-24T09:35:04.346Z,22.6
2018-08-24T09:40:04.349Z,22.79
2018-08-24T09:45:04.355Z,23.22
2018-08-24T09:50:04.352Z,23.92
2018-08-24T09:55:04.356Z,24.5
2018-08-24T10:00:04.374Z,25.23
2018-08-24T10:05:04.380Z,24.84
2018-08-24T10:10:04.362Z,23.27
2018-08-24T10:15:04.368Z,22.22
2018-08-24T10:20:04.378Z,22.02
2018-08-24T10:25:04.393Z,21.08
2018-08-24T10:30:04.392Z,20.22
2018-08-24T10:35:04.381Z,15.85
2018-08-24T10:40:04.400Z,13.02
2018-08-24T10:45:04.383Z,12.76
2018-08-24T10:50:04.391Z,12.78
2018-08-24T10:55:04.389Z,12.89
2018-08-24T11:00:04.406Z,13.04
2018-08-24T11:05:04.387Z,13.25
2018-08-24T11:10:03.393Z,13.35
2018-08-24T11:15:03.392Z,13.51
2018-08-24T11:20:03.419Z,13.83
2018-08-24T11:25:03.412Z,14.04
2018-08-24T11:30:03.405Z,14.69
2018-08-24T11:35:03.437Z,15.28
2018-08-24T11:40:03.405Z,15.83
2018-08-24T11:45:03.415Z,16.64
2018-08-24T11:50:03.423Z,18.46
2018-08-24T11:55:03.424Z,18.55
2018-08-24T12:00:03.421Z,18.85
2018-08-24T12:05:03.426Z,19.54
2018-08-24T12:10:03.434Z,20.49
2018-08-24T12:15:03.432Z,21.66
2018-08-24T12:20:03.429Z,22.6
2018-08-24T12:25:03.447Z,23.21
2018-08-24T12:30:03.449Z,23.31
2018-08-24T12:35:03.451Z,22.36
2018-08-24T12:40:03.444Z,21.85
2018-08-24T12:45:03.453Z,21.48
2018-08-24T12:50:03.469Z,20.78
2018-08-24T12:55:03.453Z,20.55
2018-08-24T13:00:03.547Z,20.77
2018-08-24T13:05:03.460Z,20.87
2018-08-24T13:10:03.463Z,21.36
2018-08-24T13:15:03.483Z,22.08
2018-08-24T13:20:03.480Z,22.52
2018-08-24T13:25:03.482Z,22.52
2018-08-24T13:30:03.481Z,22.22
2018-08-24T13:35:03.493Z,21.69
2018-08-24T13:40:03.472Z,21.62
2018-08-24T13:45:03.484Z,21.23
2018-08-24T13:50:03.506Z,21.22
2018-08-24T13:55:03.488Z,21.57
2018-08-24T14:00:03.579Z,21.9
2018-08-24T14:05:03.511Z,21.93
2018-08-24T14:10:03.489Z,22.22
2018-08-24T14:15:03.494Z,23.23
2018-08-24T14:20:03.503Z,24.62
2018-08-24T14:25:03.502Z,25.99
2018-08-24T14:30:03.506Z,25.59
2018-08-24T14:35:03.521Z,26.09
2018-08-24T14:40:03.509Z,28.09
2018-08-24T14:45:03.508Z,29.41
2018-08-24T14:50:03.540Z,28.37
2018-08-24T14:55:03.526Z,24.65
2018-08-24T15:00:03.521Z,25.24
2018-08-24T15:05:03.522Z,25.29
2018-08-24T15:10:03.564Z,25.45
2018-08-24T15:15:03.532Z,24.36
2018-08-24T15:20:03.527Z,23.89
2018-08-24T15:25:03.552Z,23.85
2018-08-24T15:30:03.635Z,22.84
2018-08-24T15:35:03.577Z,21.92
2018-08-24T15:40:03.548Z,21.63
2018-08-24T15:45:03.542Z,21.27
2018-08-24T15:50:03.554Z,21.01
2018-08-24T15:55:03.554Z,20.69
2018-08-24T16:00:03.560Z,20.57
2018-08-24T16:05:03.556Z,20.47
2018-08-24T16:10:03.561Z,20.53
2018-08-24T16:15:03.578Z,20.54
2018-08-24T16:20:03.564Z,20.68
2018-08-24T16:25:03.582Z,20.47
2018-08-24T16:30:03.577Z,20.47
2018-08-24T16:35:03.569Z,20.4
2018-08-24T16:40:03.583Z,20.32
2018-08-24T16:45:03.600Z,20.17
2018-08-24T16:50:03.595Z,19.94
2018-08-24T16:55:03.581Z,19.7
2018-08-24T17:00:03.586Z,19.43
2018-08-24T17:05:03.586Z,19.29
2018-08-24T17:10:03.587Z,19.18
2018-08-24T17:15:03.598Z,19
2018-08-24T17:20:03.594Z,18.82
2018-08-24T17:25:03.603Z,18.64
2018-08-24T17:30:03.616Z,18.52
2018-08-24T17:35:03.601Z,18.39
2018-08-24T17:40:03.605Z,18.26
2018-08-24T17:45:03.625Z,18.12
2018-08-24T17:50:03.613Z,17.97
2018-08-24T17:55:03.611Z,17.83
2018-08-24T18:00:03.621Z,17.64
2018-08-24T18:05:03.615Z,17.45
2018-08-24T18:10:03.622Z,17.28
2018-08-24T18:15:03.795Z,17.19
2018-08-24T18:20:03.622Z,17.03
2018-08-24T18:25:03.624Z,16.91
2018-08-24T18:30:03.650Z,16.78
2018-08-24T18:35:03.630Z,16.7
2018-08-24T18:40:03.633Z,16.74
2018-08-24T18:45:03.659Z,16.7
2018-08-24T18:50:03.639Z,16.65
2018-08-24T18:55:03.643Z,16.66
2018-08-24T19:00:03.649Z,16.59
2018-08-24T19:05:03.664Z,16.49
2018-08-24T19:10:03.652Z,16.41
2018-08-24T19:15:03.667Z,16.3
2018-08-24T19:20:03.668Z,16.21
2018-08-24T19:25:03.660Z,16.26
2018-08-24T19:30:03.671Z,16.29
2018-08-24T19:35:03.663Z,16.27
2018-08-24T19:40:03.668Z,16.26
2018-08-24T19:45:03.678Z,16.24
2018-08-24T19:50:03.669Z,16.17
2018-08-24T19:55:03.699Z,16.12
2018-08-24T20:00:03.691Z,16.08
2018-08-24T20:05:03.684Z,16.02
2018-08-24T20:10:03.687Z,15.93
2018-08-24T20:15:03.705Z,15.89
2018-08-24T20:20:03.694Z,15.8
2018-08-24T20:25:03.694Z,15.75
2018-08-24T20:30:03.700Z,15.59
2018-08-24T20:35:03.695Z,15.4
2018-08-24T20:40:03.716Z,15.39
2018-08-24T20:45:03.708Z,15.3
2018-08-24T20:50:03.706Z,15.25
2018-08-24T20:55:03.759Z,15.17
2018-08-24T21:00:03.714Z,15.1
2018-08-24T21:05:03.757Z,15.12
2018-08-24T21:10:03.721Z,15.18
2018-08-24T21:15:03.763Z,15.22
2018-08-24T21:20:03.717Z,15.17
2018-08-24T21:25:03.720Z,15.06
2018-08-24T21:30:03.765Z,14.91
2018-08-24T21:35:03.729Z,14.7
2018-08-24T21:40:03.727Z,14.44
2018-08-24T21:45:03.753Z,14.26
2018-08-24T21:50:03.737Z,14.1
2018-08-24T21:55:03.735Z,13.89
2018-08-24T22:00:03.760Z,13.71
2018-08-24T22:05:03.742Z,13.56
2018-08-24T22:10:03.746Z,13.37
2018-08-24T22:15:03.759Z,13.32
2018-08-24T22:20:03.773Z,13.33
2018-08-24T22:25:03.760Z,13.47
2018-08-24T22:30:03.871Z,13.52
2018-08-24T22:35:03.759Z,13.5
2018-08-24T22:40:03.764Z,13.39
2018-08-24T22:45:03.770Z,13.15
2018-08-24T22:50:03.766Z,12.95
2018-08-24T22:55:03.767Z,12.96
2018-08-24T23:00:03.778Z,12.97
2018-08-24T23:05:03.771Z,12.96
2018-08-24T23:10:03.786Z,12.94
2018-08-24T23:15:03.790Z,12.96
2018-08-24T23:20:03.788Z,12.87
2018-08-24T23:25:03.785Z,12.71
2018-08-24T23:30:03.789Z,12.69
2018-08-24T23:35:03.802Z,12.7
2018-08-24T23:40:03.812Z,12.97
2018-08-24T23:45:03.801Z,13.11
2018-08-24T23:50:03.815Z,13.15
2018-08-24T23:55:03.800Z,13.21
